Tropical Cyclones
[Index]
Main Index Home Page Stock Weather Photos Extreme Storms Discussion Storm News and Storm Chasing Reports Tropical Cyclones / Hurricanes / Typhoons Weather Data and Links Wild Fires / Bushfires Weather Observation Techniques Weather Picture Catalogue Tornado Pictures and Reports Stock Video Footage and DVDs for sale
Season 2007-2008 Tropical Cyclone FAME Track Map
Season 2007-2008 Summaries: [BoM-AU] [JTWC-AU] [JTWC-SIO] [JTWC-SPAC] [JTWC-SH]
<<- Previous TC | JTWC 2007-2008 Season | Next TC ->>

click for intensity scale information  Lat/long Grid: Show Hide

 Date Labels: Show Hide

Joint Typhoon Warning Centre Cyclone Data

Name: FAME

23 Jan 2008 12:00 UTC to 01 Feb 2008 12:00 UTC

    date/time    lat    long     hPa   cat  kts
2008-01-23 12   11.8    49.1    1010         15          
2008-01-23 18   12.3    47.7    1010         15          
2008-01-24 00   12.9    46.4    1004         25          
2008-01-24 06   13.5    45.4    1000         30          
2008-01-24 12   13.7    45.1    1000         30          
2008-01-24 18   13.8    44.9    1000         30          
2008-01-25 00   13.8    44.7    1000         30          
2008-01-25 06   13.8    44.6     996         35          
2008-01-25 12   13.9    44.7     989    1    45          
2008-01-25 18   13.8    44.8     985    1    50          
2008-01-26 00   13.7    44.7     982    2    55          
2008-01-26 00   13.7    44.7     982    2    55          
2008-01-26 06   14.0    44.7     982    2    55          
2008-01-26 06   14.0    44.7     982    2    55          
2008-01-26 12   14.4    44.5     978    2    60          
2008-01-26 12   14.4    44.5     978    2    60          
2008-01-26 18   14.7    44.4     978    2    60          
2008-01-26 18   14.7    44.4     978    2    60          
2008-01-27 00   15.1    44.4     970    2    70          
2008-01-27 00   15.1    44.4     970    2    70          
2008-01-27 06   15.7    44.4     959    3    85          
2008-01-27 06   15.7    44.4     959    3    85          
2008-01-27 06   15.7    44.4     959    3    85          
2008-01-27 12   16.4    44.5     967    3    75          
2008-01-27 12   16.4    44.5     967    3    75          
2008-01-27 12   16.4    44.5     967    3    75          
2008-01-27 18   17.0    44.7     970    2    70          
2008-01-27 18   17.0    44.7     970    2    70          
2008-01-27 18   17.0    44.7     970    2    70          
2008-01-28 00   17.6    45.3     974    2    65          
2008-01-28 00   17.6    45.3     974    2    65          
2008-01-28 06   18.3    46.4     993    1    40          
2008-01-28 12   19.3    46.6    1000         30          
2008-01-28 18   19.4    49.0    1000         30          
2008-01-29 00   19.5    50.1    1000         30          
2008-01-29 06   20.0    51.2     996         35          
2008-01-29 12   20.5    52.0     996         35          
2008-01-29 18   20.9    52.4     996         35          
2008-01-30 00   21.2    52.6     996         35          
2008-01-30 06   21.4    52.8     996         35          
2008-01-30 12   21.5    53.1     993    1    40          
2008-01-30 18   21.6    53.3     989    1    45          
2008-01-31 00   22.0    53.2     993    1    40          
2008-01-31 06   22.4    52.8     996         35          
2008-01-31 12   22.3    52.1     996         35          
2008-01-31 18   21.5    52.9     996         35          
2008-02-01 00   22.0    54.2     996         35          
2008-02-01 06   23.6    56.4     996         35          
2008-02-01 12   26.4    55.7     996         35          
Winds are 1-min average.

Tropical cyclone tracks developed by Michael Bath using data from the Joint Typhoon Warning Centre Best Tracks and Google Maps.


[Australian Severe Weather index] [Copyright Notice] [Email Contacts] [Search This Site] [Privacy Policy]
Document: tropical_cyclone_fame.htm Updated: 28 June 2017